Time;durP1;ratioP1;P1;durP2;ratioP2;P2;SDS_P1;SDS_P2;PMS_P1;PMS_P2;Temp;Humidity;BMP_temperature;BMP_pressure;BME280_temperature;BME280_humidity;BME280_pressure;Samples;Min_cycle;Max_cycle;Signal;HPM_P1;HPM_P2
2022/01/01 20:20:15;;;;;;;69.05;39.92;;;;;;;;;;5077641;27;2176532;-70
2022/01/01 20:22:42;;;;;;;67.35;39.92;;;;;;;;;;5112484;28;20067;-70
2022/01/01 20:25:08;;;;;;;61.25;36.88;;;;;;;;;;5131088;28;20053;-70
2022/01/01 20:27:35;;;;;;;71.10;40.15;;;;;;;;;;5130920;28;20456;-72
2022/01/01 20:30:03;;;;;;;76.55;42.83;;;;;;;;;;5130716;28;20058;-73
2022/01/01 20:32:29;;;;;;;71.15;43.60;;;;;;;;;;5112366;28;20047;-76
2022/01/01 20:34:55;;;;;;;66.32;37.38;;;;;;;;;;5130878;28;20065;-72
2022/01/01 20:37:22;;;;;;;64.45;36.88;;;;;;;;;;5112411;28;20110;-70
2022/01/01 20:39:49;;;;;;;62.00;34.80;;;;;;;;;;5112382;28;20114;-69
2022/01/01 20:42:16;;;;;;;58.58;33.92;;;;;;;;;;5130991;28;20157;-69
2022/01/01 20:44:44;;;;;;;58.45;33.70;;;;;;;;;;5130591;28;20467;-69
2022/01/01 20:47:10;;;;;;;59.25;33.30;;;;;;;;;;5112199;28;20051;-68
2022/01/01 20:49:36;;;;;;;56.83;32.28;;;;;;;;;;5112181;28;20481;-70
2022/01/01 20:52:04;;;;;;;56.00;31.60;;;;;;;;;;5112008;28;20023;-66
2022/01/01 20:54:30;;;;;;;57.78;33.35;;;;;;;;;;5130575;28;20023;-67
2022/01/01 20:56:56;;;;;;;61.58;35.00;;;;;;;;;;5130790;28;20035;-66
2022/01/01 20:59:23;;;;;;;63.92;35.25;;;;;;;;;;5111724;28;20058;-67
2022/01/01 21:01:54;;;;;;;67.90;37.30;;;;;;;;;;5130482;28;20026;-67
2022/01/01 21:04:24;;;;;;;70.25;40.92;;;;;;;;;;5130666;28;20050;-66
2022/01/01 21:06:51;;;;;;;71.07;41.22;;;;;;;;;;5130381;28;20041;-66
2022/01/01 21:09:18;;;;;;;70.35;37.83;;;;;;;;;;5129996;28;20054;-67
2022/01/01 21:11:45;;;;;;;71.47;38.38;;;;;;;;;;5130267;28;20122;-67
2022/01/01 21:14:12;;;;;;;62.72;36.30;;;;;;;;;;5111900;28;20387;-67
2022/01/01 21:16:38;;;;;;;63.30;34.17;;;;;;;;;;5130140;28;20031;-67
2022/01/01 21:19:06;;;;;;;60.53;35.88;;;;;;;;;;5128932;28;20127;-67
2022/01/01 21:21:33;;;;;;;58.22;34.35;;;;;;;;;;5097586;28;20028;-66
2022/01/01 21:23:59;;;;;;;67.05;37.50;;;;;;;;;;5116410;28;20460;-69
2022/01/01 21:26:26;;;;;;;70.35;41.60;;;;;;;;;;5116279;28;20108;-69
2022/01/01 21:28:52;;;;;;;65.95;39.75;;;;;;;;;;5097850;28;20028;-69
2022/01/01 21:31:19;;;;;;;72.53;39.67;;;;;;;;;;5115903;28;20520;-68
2022/01/01 21:33:46;;;;;;;67.95;38.78;;;;;;;;;;5097826;28;20472;-68
2022/01/01 21:36:13;;;;;;;68.63;38.40;;;;;;;;;;5097664;28;20019;-68
2022/01/01 21:38:39;;;;;;;61.22;35.25;;;;;;;;;;5115751;28;20058;-69
2022/01/01 21:41:05;;;;;;;78.47;39.60;;;;;;;;;;5097675;28;20023;-69
2022/01/01 21:43:32;;;;;;;80.95;42.08;;;;;;;;;;5097552;28;20114;-69
2022/01/01 21:45:58;;;;;;;74.28;38.88;;;;;;;;;;5116043;28;20077;-70
2022/01/01 21:48:24;;;;;;;75.97;39.33;;;;;;;;;;5115900;28;20024;-69
2022/01/01 21:50:50;;;;;;;76.65;40.03;;;;;;;;;;5114329;28;20034;-69
2022/01/01 21:53:18;;;;;;;75.93;40.55;;;;;;;;;;5115478;28;20019;-69
2022/01/01 21:55:48;;;;;;;76.05;40.90;;;;;;;;;;5115731;28;20047;-70
2022/01/01 21:58:18;;;;;;;72.90;40.00;;;;;;;;;;5115703;28;20107;-68
2022/01/01 22:00:45;;;;;;;77.47;43.10;;;;;;;;;;5115719;28;20047;-69
2022/01/01 22:03:12;;;;;;;96.18;51.17;;;;;;;;;;5115512;28;20026;-70
2022/01/01 22:05:38;;;;;;;79.63;45.47;;;;;;;;;;5115446;28;20032;-70
2022/01/01 22:08:05;;;;;;;77.22;42.92;;;;;;;;;;5115449;28;20063;-71
2022/01/01 22:10:32;;;;;;;61.25;36.90;;;;;;;;;;5097117;28;20050;-71
2022/01/01 22:12:58;;;;;;;54.70;33.78;;;;;;;;;;5096925;28;20532;-72
2022/01/01 22:15:24;;;;;;;57.28;33.78;;;;;;;;;;5097075;28;20132;-70
2022/01/01 22:17:51;;;;;;;59.40;34.30;;;;;;;;;;5115210;28;20031;-70
2022/01/01 22:20:18;;;;;;;52.00;32.45;;;;;;;;;;5114761;28;20043;-70
2022/01/01 22:22:44;;;;;;;56.70;33.00;;;;;;;;;;5096890;28;20400;-71
2022/01/01 22:25:10;;;;;;;63.00;35.38;;;;;;;;;;5115176;28;20110;-70
2022/01/01 22:27:37;;;;;;;80.97;39.15;;;;;;;;;;5115111;28;20020;-72
2022/01/01 22:30:04;;;;;;;63.22;33.58;;;;;;;;;;5115020;28;20020;-72
2022/01/01 22:32:30;;;;;;;54.50;29.70;;;;;;;;;;5113935;28;20028;-70
2022/01/01 22:34:57;;;;;;;56.00;29.58;;;;;;;;;;5114594;28;20023;-71
2022/01/01 22:37:23;;;;;;;42.85;25.48;;;;;;;;;;5114921;28;20102;-71
2022/01/01 22:39:49;;;;;;;44.72;25.98;;;;;;;;;;5114722;28;20099;-72
2022/01/01 22:42:15;;;;;;;41.35;24.10;;;;;;;;;;5114841;28;20517;-71
2022/01/01 22:44:42;;;;;;;41.90;24.67;;;;;;;;;;5114435;28;20375;-71
2022/01/01 22:47:08;;;;;;;45.38;24.02;;;;;;;;;;5096465;28;20036;-70
2022/01/01 22:49:34;;;;;;;37.35;24.70;;;;;;;;;;5096105;28;20034;-71
2022/01/01 22:52:00;;;;;;;41.08;24.38;;;;;;;;;;5114284;28;20433;-72
2022/01/01 22:54:28;;;;;;;45.90;25.98;;;;;;;;;;5114600;28;20515;-72
2022/01/01 22:56:54;;;;;;;49.22;26.30;;;;;;;;;;5114523;28;20094;-71
2022/01/01 22:59:20;;;;;;;50.28;28.52;;;;;;;;;;5096215;28;20047;-72
2022/01/01 23:01:46;;;;;;;51.42;29.23;;;;;;;;;;5114531;28;20023;-71
2022/01/01 23:04:13;;;;;;;49.03;26.88;;;;;;;;;;5114372;28;20131;-70
2022/01/01 23:06:40;;;;;;;49.08;28.65;;;;;;;;;;5096082;28;20414;-69
2022/01/01 23:09:06;;;;;;;50.20;28.25;;;;;;;;;;5114389;28;20032;-70
2022/01/01 23:11:33;;;;;;;47.28;27.83;;;;;;;;;;5114254;28;20023;-70
2022/01/01 23:13:59;;;;;;;49.78;28.65;;;;;;;;;;5114225;28;20032;-70
2022/01/01 23:16:32;;;;;;;48.80;27.73;;;;;;;;;;5114177;28;20031;-70
2022/01/01 23:18:58;;;;;;;49.88;29.70;;;;;;;;;;5113895;28;20071;-69
2022/01/01 23:21:32;;;;;;;46.55;26.13;;;;;;;;;;5114190;28;20038;-70
2022/01/01 23:23:59;;;;;;;46.92;26.38;;;;;;;;;;5113986;28;20023;-70
2022/01/01 23:26:27;;;;;;;43.47;26.10;;;;;;;;;;5114140;28;20024;-70
2022/01/01 23:28:58;;;;;;;55.55;31.67;;;;;;;;;;5113919;28;20032;-69
2022/01/01 23:31:28;;;;;;;43.85;26.25;;;;;;;;;;5095785;28;20349;-69
2022/01/01 23:33:57;;;;;;;41.53;25.23;;;;;;;;;;5113933;28;20016;-68
2022/01/01 23:36:26;;;;;;;41.75;24.80;;;;;;;;;;5113976;28;20019;-69
2022/01/01 23:38:52;;;;;;;39.65;24.35;;;;;;;;;;5113870;28;20020;-69
2022/01/01 23:41:18;;;;;;;40.28;24.52;;;;;;;;;;5113823;28;20016;-70
2022/01/01 23:43:45;;;;;;;42.80;23.88;;;;;;;;;;5113559;28;20073;-69
2022/01/01 23:46:12;;;;;;;43.53;25.77;;;;;;;;;;5113836;28;20111;-69
2022/01/01 23:48:39;;;;;;;44.92;26.08;;;;;;;;;;5113919;28;20104;-69
2022/01/01 23:51:08;;;;;;;43.50;25.85;;;;;;;;;;5113699;28;20080;-68
2022/01/01 23:53:45;;;;;;;48.33;27.45;;;;;;;;;;5113598;28;20110;-68
2022/01/01 23:56:13;;;;;;;51.35;31.45;;;;;;;;;;5113645;28;20012;-68
2022/01/01 23:58:39;;;;;;;47.42;27.83;;;;;;;;;;5095257;28;20055;-67
